createdAt,value
2018-03-17T00:00:39.999Z,63.37
2018-03-17T00:03:11.738Z,63.18
2018-03-17T00:05:42.988Z,63.33
2018-03-17T00:08:16.431Z,63.34
2018-03-17T00:10:48.278Z,63.46
2018-03-17T00:13:21.502Z,63.52
2018-03-17T00:15:53.246Z,63.56
2018-03-17T00:18:24.845Z,63.61
2018-03-17T00:20:55.972Z,63.59
2018-03-17T00:23:27.081Z,64.15
2018-03-17T00:25:58.686Z,64.07
2018-03-17T00:28:29.820Z,63.87
2018-03-17T00:31:02.246Z,63.74
2018-03-17T00:33:35.428Z,63.85
2018-03-17T00:36:06.603Z,63.66
2018-03-17T00:38:38.135Z,63.84
2018-03-17T00:41:09.371Z,64.04
2018-03-17T00:43:40.423Z,63.98
2018-03-17T00:46:12.387Z,64.02
2018-03-17T00:48:43.615Z,63.65
2018-03-17T00:51:14.991Z,64.27
2018-03-17T00:53:46.477Z,64.71
2018-03-17T00:56:17.843Z,64.81
2018-03-17T00:58:55.629Z,65.27
2018-03-17T01:01:41.574Z,65.37
2018-03-17T01:04:13.297Z,65.33
2018-03-17T01:06:44.891Z,65.34
2018-03-17T01:09:16.836Z,65.64
2018-03-17T01:11:48.339Z,65.41
2018-03-17T01:14:19.940Z,65.67
2018-03-17T01:16:57.176Z,65.42
2018-03-17T01:19:28.739Z,65.61
2018-03-17T01:22:01.205Z,65.33
2018-03-17T01:24:32.916Z,65.22
2018-03-17T01:27:05.564Z,65.38
2018-03-17T01:29:37.972Z,65.23
2018-03-17T01:32:09.497Z,65.47
2018-03-17T01:34:40.945Z,65.47
2018-03-17T01:37:13.546Z,64.54
2018-03-17T01:39:45.693Z,64.79
2018-03-17T01:42:18.319Z,64.64
2018-03-17T01:44:50.593Z,65.16
2018-03-17T01:47:22.673Z,64.69
2018-03-17T01:49:54.397Z,64.95
2018-03-17T01:52:28.014Z,65.33
2018-03-17T01:54:59.082Z,65.57
2018-03-17T01:57:32.149Z,65.11
2018-03-17T02:00:06.856Z,65.01
2018-03-17T02:02:40.012Z,64.79
2018-03-17T02:05:11.441Z,65.34
2018-03-17T02:07:43.925Z,65.40
2018-03-17T02:10:15.648Z,65.48
2018-03-17T02:12:47.324Z,65.63
2018-03-17T02:15:19.175Z,65.08
2018-03-17T02:17:50.565Z,65.19
2018-03-17T02:20:21.747Z,66.12
2018-03-17T02:22:53.091Z,66.48
2018-03-17T02:25:24.522Z,66.64
2018-03-17T02:27:56.159Z,66.13
2018-03-17T02:30:27.841Z,66.75
2018-03-17T02:32:59.478Z,66.76
2018-03-17T02:35:30.909Z,65.86
2018-03-17T02:38:02.932Z,66.11
2018-03-17T02:40:35.083Z,65.82
2018-03-17T02:43:06.367Z,66.45
2018-03-17T02:45:39.184Z,66.31
2018-03-17T02:48:11.106Z,66.21
2018-03-17T02:50:43.099Z,66.55
2018-03-17T02:53:15.714Z,65.95
2018-03-17T02:55:48.017Z,66.43
2018-03-17T02:58:19.337Z,66.81
2018-03-17T03:00:51.292Z,65.88
2018-03-17T03:03:24.599Z,66.65
2018-03-17T03:05:56.215Z,66.65
2018-03-17T03:08:27.718Z,66.34
2018-03-17T03:11:00.612Z,67.39
2018-03-17T03:13:32.270Z,67.91
2018-03-17T03:16:03.879Z,67.04
2018-03-17T03:18:35.692Z,67.72
2018-03-17T03:21:06.721Z,67.49
2018-03-17T03:23:37.632Z,67.58
2018-03-17T03:26:08.422Z,67.94
2018-03-17T03:28:39.223Z,68.27
2018-03-17T03:31:10.765Z,67.81
2018-03-17T03:33:42.015Z,67.52
2018-03-17T03:36:15.314Z,67.37
2018-03-17T03:38:46.435Z,66.65
2018-03-17T03:41:17.156Z,66.41
2018-03-17T03:43:48.516Z,65.80
2018-03-17T03:46:20.068Z,66.55
2018-03-17T03:48:51.320Z,66.55
2018-03-17T03:51:22.603Z,66.44
2018-03-17T03:53:53.998Z,66.10
2018-03-17T03:56:25.230Z,65.71
2018-03-17T03:58:56.282Z,65.16
2018-03-17T04:01:27.977Z,64.97
2018-03-17T04:03:58.673Z,65.49
2018-03-17T04:06:30.366Z,64.92
2018-03-17T04:09:01.583Z,64.88
2018-03-17T04:11:33.894Z,65.50
2018-03-17T04:14:04.762Z,64.82
2018-03-17T04:16:35.562Z,64.56
2018-03-17T04:19:09.814Z,64.77
2018-03-17T04:21:40.833Z,64.27
2018-03-17T04:24:18.133Z,64.26
2018-03-17T04:29:27.004Z,63.83
2018-03-17T04:31:57.986Z,63.44
2018-03-17T04:34:28.884Z,63.64
2018-03-17T04:36:59.455Z,64.02
2018-03-17T04:39:30.331Z,63.86
2018-03-17T04:42:00.906Z,64.25
2018-03-17T04:44:31.545Z,65.12
2018-03-17T04:47:02.271Z,65.04
2018-03-17T04:49:32.908Z,65.67
2018-03-17T04:52:03.986Z,65.64
2018-03-17T04:54:34.787Z,65.93
2018-03-17T04:57:07.530Z,66.00
2018-03-17T04:59:39.531Z,66.41
2018-03-17T05:02:10.608Z,66.07
2018-03-17T05:04:41.418Z,66.30
2018-03-17T05:07:12.182Z,66.15
2018-03-17T05:09:44.277Z,66.12
2018-03-17T05:12:15.378Z,65.67
2018-03-17T05:14:47.826Z,65.65
2018-03-17T05:17:19.526Z,65.58
2018-03-17T05:19:50.487Z,66.57
2018-03-17T05:22:21.225Z,66.93
2018-03-17T05:24:52.082Z,66.68
2018-03-17T05:27:31.389Z,67.47
2018-03-17T05:30:05.255Z,66.71
2018-03-17T05:32:47.686Z,65.70
2018-03-17T05:35:18.360Z,65.90
2018-03-17T05:37:49.223Z,66.52
2018-03-17T05:40:20.630Z,65.37
2018-03-17T05:42:52.684Z,65.48
2018-03-17T05:45:23.898Z,65.53
2018-03-17T05:47:55.589Z,65.18
2018-03-17T05:50:26.457Z,66.04
2018-03-17T05:52:58.128Z,66.43
2018-03-17T05:55:29.749Z,66.47
2018-03-17T05:58:00.932Z,65.81
2018-03-17T06:00:34.442Z,66.18
2018-03-17T06:03:05.430Z,66.45
2018-03-17T06:05:36.546Z,66.29
2018-03-17T06:08:08.769Z,66.10
2018-03-17T06:10:41.561Z,65.76
2018-03-17T06:13:13.784Z,64.55
2018-03-17T06:15:47.579Z,64.13
2018-03-17T06:18:20.316Z,63.60
2018-03-17T06:20:52.203Z,63.67
2018-03-17T06:23:24.438Z,63.15
2018-03-17T06:25:56.469Z,63.23
2018-03-17T06:28:27.894Z,63.56
2018-03-17T06:31:00.365Z,62.87
2018-03-17T06:33:32.077Z,62.71
2018-03-17T06:36:04.555Z,62.40
2018-03-17T06:38:36.686Z,62.30
2018-03-17T06:41:08.417Z,62.60
2018-03-17T06:43:39.860Z,62.75
2018-03-17T06:46:12.051Z,62.11
2018-03-17T06:48:45.084Z,62.80
2018-03-17T06:51:16.325Z,62.35
2018-03-17T06:53:47.960Z,62.20
2018-03-17T06:56:19.512Z,62.30
2018-03-17T06:58:51.911Z,62.49
2018-03-17T07:01:24.284Z,62.09
2018-03-17T07:03:55.631Z,62.41
2018-03-17T07:06:27.396Z,62.70
2018-03-17T07:08:59.995Z,62.79
2018-03-17T07:11:31.795Z,63.26
2018-03-17T07:14:04.177Z,63.72
2018-03-17T07:16:36.159Z,64.08
2018-03-17T07:19:08.504Z,63.59
2018-03-17T07:21:39.829Z,63.99
2018-03-17T07:24:13.332Z,63.72
2018-03-17T07:26:44.600Z,64.23
2018-03-17T07:29:18.434Z,64.68
2018-03-17T07:31:51.059Z,64.83
2018-03-17T07:34:22.539Z,64.42
2018-03-17T07:36:53.787Z,64.10
2018-03-17T07:39:25.301Z,63.65
2018-03-17T07:41:56.564Z,63.20
2018-03-17T07:44:27.977Z,63.74
2018-03-17T07:47:00.752Z,63.83
2018-03-17T07:49:32.848Z,63.58
2018-03-17T07:52:05.188Z,63.24
2018-03-17T07:54:36.348Z,63.06
2018-03-17T07:57:15.158Z,63.03
2018-03-17T07:59:47.178Z,62.05
2018-03-17T08:02:18.931Z,61.65
2018-03-17T08:04:56.579Z,61.94
2018-03-17T08:07:28.719Z,61.35
2018-03-17T08:10:03.099Z,61.56
2018-03-17T08:12:35.868Z,61.78
2018-03-17T08:15:15.209Z,61.89
2018-03-17T08:17:46.650Z,62.07
2018-03-17T08:20:17.859Z,62.46
2018-03-17T08:22:51.902Z,63.23
2018-03-17T08:25:23.655Z,64.27
2018-03-17T08:27:55.437Z,64.53
2018-03-17T08:30:27.230Z,63.16
2018-03-17T08:32:58.822Z,64.39
2018-03-17T08:35:31.285Z,65.17
2018-03-17T08:38:03.656Z,64.87
2018-03-17T08:40:37.722Z,64.44
2018-03-17T08:43:09.215Z,64.72
2018-03-17T08:45:40.473Z,64.95
2018-03-17T08:48:11.445Z,65.40
2018-03-17T08:50:43.591Z,64.95
2018-03-17T08:53:17.130Z,64.30
2018-03-17T08:55:48.383Z,65.09
2018-03-17T08:58:19.581Z,64.19
2018-03-17T09:00:51.082Z,64.18
2018-03-17T09:03:22.226Z,63.33
2018-03-17T09:05:54.047Z,64.38
2018-03-17T09:08:25.581Z,64.05
2018-03-17T09:10:58.065Z,64.97
2018-03-17T09:13:29.531Z,64.43
2018-03-17T09:16:02.526Z,64.53
2018-03-17T09:18:33.654Z,64.01
2018-03-17T09:21:05.993Z,64.40
2018-03-17T09:23:38.366Z,64.87
2018-03-17T09:26:11.048Z,64.58
2018-03-17T09:28:44.171Z,63.88
2018-03-17T09:31:16.491Z,64.37
2018-03-17T09:33:47.834Z,63.64
2018-03-17T09:36:19.916Z,64.59
2018-03-17T09:38:57.774Z,64.21
2018-03-17T09:41:30.165Z,64.04
2018-03-17T09:44:16.291Z,64.53
2018-03-17T09:46:48.165Z,64.12
2018-03-17T09:49:19.700Z,63.50
2018-03-17T09:51:57.905Z,62.61
2018-03-17T09:54:42.885Z,62.07
2018-03-17T09:57:22.632Z,62.59
2018-03-17T09:59:56.122Z,62.36
2018-03-17T10:02:27.827Z,61.62
2018-03-17T10:05:02.123Z,63.34
2018-03-17T10:07:39.395Z,62.07
2018-03-17T10:10:17.710Z,63.06
2018-03-17T10:12:49.669Z,63.31
2018-03-17T10:15:21.056Z,63.49
2018-03-17T10:17:52.939Z,62.99
2018-03-17T10:20:25.205Z,63.39
2018-03-17T10:22:59.113Z,63.12
2018-03-17T10:25:32.407Z,62.81
2018-03-17T10:28:05.536Z,62.69
2018-03-17T10:30:46.772Z,61.93
2018-03-17T10:33:22.820Z,63.40
2018-03-17T10:35:56.108Z,63.82
2018-03-17T10:38:28.129Z,62.15
2018-03-17T10:41:16.672Z,62.96
2018-03-17T10:43:48.735Z,62.17
2018-03-17T10:46:23.798Z,60.86
2018-03-17T10:48:55.230Z,60.91
2018-03-17T10:51:31.841Z,61.68
2018-03-17T10:54:03.970Z,61.45
2018-03-17T10:56:34.886Z,60.66
2018-03-17T10:59:06.395Z,60.50
2018-03-17T11:01:42.415Z,61.11
2018-03-17T11:04:13.516Z,60.93
2018-03-17T11:06:44.381Z,60.95
2018-03-17T11:09:15.306Z,60.54
2018-03-17T11:11:47.061Z,60.13
2018-03-17T11:14:18.000Z,59.77
2018-03-17T11:16:49.622Z,59.95
2018-03-17T11:19:21.141Z,60.33
2018-03-17T11:21:53.061Z,60.62
2018-03-17T11:24:24.952Z,60.09
2018-03-17T11:26:56.292Z,59.86
2018-03-17T11:29:28.981Z,59.97
2018-03-17T11:32:00.523Z,59.77
2018-03-17T11:34:32.016Z,58.43
2018-03-17T11:37:03.746Z,58.58
2018-03-17T11:39:34.992Z,58.56
2018-03-17T11:42:06.777Z,57.46
2018-03-17T11:44:38.171Z,57.11
2018-03-17T11:47:10.997Z,57.12
2018-03-17T11:49:42.991Z,56.73
2018-03-17T11:52:15.601Z,57.01
2018-03-17T11:54:46.921Z,55.58
2018-03-17T11:57:18.068Z,56.11
2018-03-17T11:59:48.994Z,55.45
2018-03-17T12:02:21.435Z,55.74
2018-03-17T12:04:52.357Z,55.43
2018-03-17T12:07:24.404Z,55.21
2018-03-17T12:09:57.598Z,54.12
2018-03-17T12:12:28.602Z,53.59
2018-03-17T12:17:39.234Z,53.68
2018-03-17T12:20:10.661Z,52.59
2018-03-17T12:22:42.120Z,52.50
2018-03-17T12:25:13.931Z,52.77
2018-03-17T12:27:44.803Z,52.62
2018-03-17T12:30:23.938Z,52.66
2018-03-17T12:32:55.041Z,53.18
2018-03-17T12:35:29.212Z,52.61
2018-03-17T12:38:01.539Z,53.04
2018-03-17T12:40:32.997Z,52.04
2018-03-17T12:43:07.730Z,52.54
2018-03-17T12:45:39.936Z,52.01
2018-03-17T12:48:10.701Z,52.11
2018-03-17T12:50:41.731Z,51.64
2018-03-17T12:53:12.791Z,51.37
2018-03-17T12:55:44.181Z,51.75
2018-03-17T12:58:18.832Z,51.26
2018-03-17T13:03:37.190Z,50.90
2018-03-17T13:06:09.995Z,50.78
2018-03-17T13:08:41.297Z,50.63
2018-03-17T13:11:12.329Z,51.68
2018-03-17T13:13:44.371Z,51.16
2018-03-17T13:16:19.280Z,51.36
2018-03-17T13:18:50.615Z,50.70
2018-03-17T13:21:21.650Z,50.94
2018-03-17T13:23:55.855Z,50.92
2018-03-17T13:26:26.801Z,50.87
2018-03-17T13:28:58.879Z,50.42
2018-03-17T13:31:30.510Z,50.38
2018-03-17T13:34:05.503Z,50.74
2018-03-17T13:36:47.180Z,50.81
2018-03-17T13:39:18.660Z,51.55
2018-03-17T13:42:08.497Z,51.54
2018-03-17T13:44:40.547Z,50.60
2018-03-17T13:47:19.984Z,51.33
2018-03-17T13:49:56.441Z,51.14
2018-03-17T13:52:28.673Z,50.98
2018-03-17T13:55:00.221Z,50.71
2018-03-17T13:57:31.824Z,50.88
2018-03-17T14:00:51.155Z,50.10
2018-03-17T14:03:23.032Z,50.15
2018-03-17T14:05:54.905Z,50.51
2018-03-17T14:08:25.919Z,49.96
2018-03-17T14:11:01.045Z,49.85
2018-03-17T14:13:32.404Z,50.11
2018-03-17T14:16:06.475Z,49.73
2018-03-17T14:18:38.704Z,50.38
2018-03-17T14:21:16.391Z,50.42
2018-03-17T14:23:56.002Z,50.10
2018-03-17T14:26:27.375Z,50.26
2018-03-17T14:28:58.343Z,49.65
2018-03-17T14:31:30.153Z,49.96
2018-03-17T14:36:40.204Z,49.41
2018-03-17T14:39:14.680Z,50.68
2018-03-17T14:41:47.673Z,50.07
2018-03-17T14:44:20.762Z,50.00
2018-03-17T14:46:51.921Z,50.65
2018-03-17T14:49:24.655Z,50.26
2018-03-17T14:51:55.885Z,50.23
2018-03-17T14:54:26.933Z,50.62
2018-03-17T14:57:01.924Z,50.46
2018-03-17T14:59:32.830Z,50.67
2018-03-17T15:04:49.694Z,49.92
2018-03-17T15:07:31.697Z,50.85
2018-03-17T15:10:02.744Z,50.92
2018-03-17T15:12:34.718Z,51.02
2018-03-17T15:15:17.055Z,50.43
2018-03-17T15:17:51.795Z,50.70
2018-03-17T15:20:23.110Z,49.64
2018-03-17T15:22:54.121Z,50.22
2018-03-17T15:25:25.691Z,50.31
2018-03-17T15:27:57.430Z,49.88
2018-03-17T15:30:28.356Z,49.86
2018-03-17T15:33:00.417Z,50.40
2018-03-17T15:35:32.275Z,50.40
2018-03-17T15:38:03.792Z,50.46
2018-03-17T15:40:39.174Z,49.91
2018-03-17T15:43:11.936Z,50.65
2018-03-17T15:45:43.616Z,50.52
2018-03-17T15:48:15.996Z,50.84
2018-03-17T15:50:50.166Z,51.07
2018-03-17T15:53:22.666Z,50.96
2018-03-17T15:55:53.720Z,51.14
2018-03-17T15:58:25.081Z,50.90
2018-03-17T16:00:56.459Z,50.41
2018-03-17T16:03:27.428Z,50.61
2018-03-17T16:06:01.717Z,50.48
2018-03-17T16:08:33.688Z,50.54
2018-03-17T16:11:05.435Z,50.64
2018-03-17T16:13:36.997Z,51.36
2018-03-17T16:16:10.581Z,51.14
2018-03-17T16:18:41.996Z,51.16
2018-03-17T16:21:13.089Z,51.19
2018-03-17T16:23:43.841Z,50.96
2018-03-17T16:26:14.862Z,51.39
2018-03-17T16:28:46.766Z,50.98
2018-03-17T16:31:25.781Z,51.13
2018-03-17T16:33:56.887Z,51.65
2018-03-17T16:36:28.452Z,51.32
2018-03-17T16:39:00.412Z,51.36
2018-03-17T16:41:31.618Z,51.56
2018-03-17T16:44:04.296Z,51.79
2018-03-17T16:46:36.117Z,51.59
2018-03-17T16:49:07.954Z,50.72
2018-03-17T16:51:39.299Z,51.25
2018-03-17T16:54:11.681Z,50.66
2018-03-17T16:56:43.931Z,50.96
2018-03-17T16:59:23.551Z,51.01
2018-03-17T17:01:59.143Z,51.82
2018-03-17T17:04:34.214Z,51.66
2018-03-17T17:07:06.645Z,51.55
2018-03-17T17:09:40.553Z,51.22
2018-03-17T17:12:11.914Z,51.33
2018-03-17T17:14:45.979Z,51.16
2018-03-17T17:17:18.310Z,51.40
2018-03-17T17:19:50.159Z,51.03
2018-03-17T17:22:21.304Z,50.94
2018-03-17T17:24:52.803Z,51.27
2018-03-17T17:27:23.596Z,51.24
2018-03-17T17:29:55.031Z,50.82
2018-03-17T17:32:27.818Z,51.63
2018-03-17T17:35:00.510Z,51.33
2018-03-17T17:37:38.900Z,51.62
2018-03-17T17:40:13.766Z,51.84
2018-03-17T17:42:45.088Z,51.90
2018-03-17T17:45:20.395Z,52.04
2018-03-17T17:47:51.830Z,51.27
2018-03-17T17:50:24.845Z,51.20
2018-03-17T17:52:56.023Z,51.00
2018-03-17T17:55:27.863Z,50.88
2018-03-17T17:58:00.327Z,51.06
2018-03-17T18:00:37.054Z,50.82
2018-03-17T18:03:09.397Z,50.50
2018-03-17T18:05:42.431Z,50.40
2018-03-17T18:08:13.976Z,49.95
2018-03-17T18:10:47.838Z,49.77
2018-03-17T18:13:20.174Z,49.57
2018-03-17T18:15:53.061Z,49.55
2018-03-17T18:18:27.754Z,50.12
2018-03-17T18:21:01.916Z,49.57
2018-03-17T18:23:34.724Z,49.62
2018-03-17T18:26:08.211Z,49.82
2018-03-17T18:28:40.632Z,49.68
2018-03-17T18:31:12.896Z,49.75
2018-03-17T18:33:50.249Z,49.30
2018-03-17T18:39:07.884Z,49.00
2018-03-17T18:41:40.652Z,49.17
2018-03-17T18:44:16.505Z,49.34
2018-03-17T18:46:48.305Z,49.03
2018-03-17T18:49:21.456Z,49.33
2018-03-17T18:51:59.535Z,49.22
2018-03-17T18:54:33.617Z,49.39
2018-03-17T18:57:12.834Z,49.08
2018-03-17T18:59:47.812Z,48.76
2018-03-17T19:02:26.350Z,49.14
2018-03-17T19:05:01.948Z,49.84
2018-03-17T19:07:35.372Z,49.00
2018-03-17T19:10:07.624Z,49.14
2018-03-17T19:12:42.140Z,49.37
2018-03-17T19:15:20.853Z,49.12
2018-03-17T19:17:52.772Z,49.27
2018-03-17T19:20:26.374Z,48.94
2018-03-17T19:22:58.759Z,49.25
2018-03-17T19:25:30.038Z,49.30
2018-03-17T19:28:02.334Z,49.47
2018-03-17T19:30:37.651Z,49.36
2018-03-17T19:33:11.822Z,49.46
2018-03-17T19:35:46.704Z,49.28
2018-03-17T19:38:19.759Z,49.39
2018-03-17T19:40:52.624Z,49.58
2018-03-17T19:43:32.641Z,49.35
2018-03-17T19:46:04.557Z,49.28
2018-03-17T19:48:37.370Z,48.95
2018-03-17T19:51:10.573Z,48.86
2018-03-17T19:53:46.512Z,49.04
2018-03-17T19:56:17.798Z,48.85
2018-03-17T19:58:49.123Z,49.32
2018-03-17T20:01:20.471Z,48.91
2018-03-17T20:03:51.605Z,48.71
2018-03-17T20:06:28.267Z,48.87
2018-03-17T20:09:01.289Z,49.02
2018-03-17T20:11:34.463Z,49.76
2018-03-17T20:14:09.230Z,49.23
2018-03-17T20:16:55.936Z,49.41
2018-03-17T20:19:29.299Z,49.53
2018-03-17T20:22:00.558Z,49.71
2018-03-17T20:24:32.948Z,48.82
2018-03-17T20:27:05.243Z,49.81
2018-03-17T20:29:36.436Z,49.69
2018-03-17T20:32:08.567Z,49.10
2018-03-17T20:34:42.281Z,49.45
2018-03-17T20:37:20.103Z,49.36
2018-03-17T20:39:55.240Z,49.30
2018-03-17T20:42:28.217Z,49.60
2018-03-17T20:45:07.048Z,49.46
2018-03-17T20:47:38.703Z,49.25
2018-03-17T20:50:11.368Z,48.99
2018-03-17T20:52:43.759Z,49.59
2018-03-17T20:55:18.722Z,49.47
2018-03-17T20:57:50.809Z,49.54
2018-03-17T21:00:26.281Z,49.29
2018-03-17T21:02:57.356Z,49.12
2018-03-17T21:05:28.370Z,48.99
2018-03-17T21:08:00.183Z,49.30
2018-03-17T21:10:31.056Z,49.46
2018-03-17T21:13:06.045Z,49.60
2018-03-17T21:15:37.833Z,49.31
2018-03-17T21:18:09.354Z,49.41
2018-03-17T21:20:40.384Z,49.31
2018-03-17T21:23:11.375Z,49.31
2018-03-17T21:25:42.360Z,49.36
2018-03-17T21:28:16.875Z,49.64
2018-03-17T21:30:49.187Z,49.68
2018-03-17T21:33:31.071Z,49.53
2018-03-17T21:39:17.631Z,49.67
2018-03-17T21:41:50.387Z,49.68
2018-03-17T21:44:21.333Z,49.70
2018-03-17T21:46:54.084Z,50.35
2018-03-17T21:49:26.788Z,50.44
2018-03-17T21:51:58.085Z,49.75
2018-03-17T21:54:29.378Z,50.23
2018-03-17T21:57:01.724Z,50.49
2018-03-17T21:59:33.296Z,50.70
2018-03-17T22:02:06.126Z,50.34
2018-03-17T22:04:39.930Z,50.22
2018-03-17T22:07:12.076Z,50.29
2018-03-17T22:09:43.488Z,49.99
2018-03-17T22:12:15.506Z,50.17
2018-03-17T22:14:47.217Z,49.94
2018-03-17T22:17:18.786Z,50.25
2018-03-17T22:19:49.832Z,50.30
2018-03-17T22:22:21.095Z,50.50
2018-03-17T22:24:52.589Z,50.44
2018-03-17T22:30:24.015Z,49.78
2018-03-17T22:32:55.643Z,50.45
2018-03-17T22:35:27.848Z,49.93
2018-03-17T22:37:59.111Z,49.98
2018-03-17T22:40:30.104Z,49.79
2018-03-17T22:43:01.136Z,49.97
2018-03-17T22:45:33.728Z,49.89
2018-03-17T22:48:05.168Z,49.95
2018-03-17T22:50:36.090Z,50.04
2018-03-17T22:53:07.188Z,50.18
2018-03-17T22:55:38.483Z,49.99
2018-03-17T22:58:15.954Z,50.36
2018-03-17T23:00:47.935Z,50.29
2018-03-17T23:03:19.780Z,50.22
2018-03-17T23:05:51.415Z,50.35
2018-03-17T23:08:22.540Z,50.09
2018-03-17T23:10:53.884Z,50.60
2018-03-17T23:13:26.408Z,50.18
2018-03-17T23:15:58.822Z,50.21
2018-03-17T23:18:30.484Z,49.89
2018-03-17T23:21:03.265Z,49.86
2018-03-17T23:23:34.992Z,49.89
2018-03-17T23:26:05.829Z,49.84
2018-03-17T23:28:37.351Z,50.10
2018-03-17T23:31:09.400Z,49.97
2018-03-17T23:33:40.886Z,49.78
2018-03-17T23:36:13.434Z,50.00
2018-03-17T23:38:47.354Z,50.27
2018-03-17T23:41:19.284Z,50.17
2018-03-17T23:43:51.640Z,50.44
2018-03-17T23:46:23.726Z,50.37
2018-03-17T23:48:56.650Z,49.97
2018-03-17T23:51:29.519Z,50.12
2018-03-17T23:54:09.911Z,49.99
2018-03-17T23:56:41.073Z,50.14
2018-03-17T23:59:16.637Z,50.20
